Terminal Aerodrome Forecast
Issued by NWS

Current Version | Previous Version | Text Only | Print | Product List | Glossary On
Versions: 1 2 3 4 5 6 7 8 9 10 11 12 13 14 15 16 17
593
FTUS44 KLIX 060522
TAFMCB
TAF
KMCB 060522Z 0606/0706 22008KT 4SM BR VCSH OVC004
     FM061000 26011KT 3SM BR OVC003
     FM061400 28008KT P6SM OVC003
     FM061800 30007KT P6SM OVC008
     FM062200 32005KT P6SM BKN010
     FM070300 VRB03KT P6SM BKN010=

USA.gov is the U.S. government's official web portal to all federal, state and local government web resources and services.